Terminal Aerodrome Forecast
Issued by NWS

Home | Current Version | Previous Version | Text Only | Print | Product List | Glossary Off
Versions: 1 2 3 4 5 6 7 8 9 10 11 12 13 14

000
FTUS43 KICT 141700
TAFHUT
TAF
KHUT 141720Z 1418/1518 17014G20KT P6SM FEW050
     FM150100 17010KT P6SM FEW040
     FM151400 21010KT P6SM SCT250=

USA.gov is the U.S. government's official web portal to all federal, state and local government web resources and services.